Time;durP1;ratioP1;P1;durP2;ratioP2;P2;SDS_P1;SDS_P2;PMS_P1;PMS_P2;Temp;Humidity;BMP_temperature;BMP_pressure;BME280_temperature;BME280_humidity;BME280_pressure;Samples;Min_cycle;Max_cycle;Signal;HPM_P1;HPM_P2
2022/10/11 00:00:53;;;;;;;;;0.67;0.67;;;;;16.09;63.41;102030.44;5077281;28;46545;-71
2022/10/11 00:03:20;;;;;;;;;4.00;1.33;;;;;16.03;63.41;102025.44;5077597;28;45278;-70
2022/10/11 00:05:45;;;;;;;;;4.67;2.67;;;;;15.63;63.60;101974.94;5077235;28;45711;-70
2022/10/11 00:08:12;;;;;;;;;2.75;2.00;;;;;15.94;63.52;102026.88;5077213;28;45415;-69
2022/10/11 00:10:38;;;;;;;;;2.33;2.33;;;;;15.91;63.65;102028.91;5064374;28;46643;-70
2022/10/11 00:13:04;;;;;;;;;1.00;1.00;;;;;15.86;63.63;102023.81;5056127;28;45387;-70
2022/10/11 00:15:30;;;;;;;;;3.75;2.25;;;;;15.81;63.58;102033.97;5055901;28;45357;-70
2022/10/11 00:17:55;;;;;;;;;2.33;1.00;;;;;15.76;63.84;102036.06;5055968;28;45319;-70
2022/10/11 00:20:20;;;;;;;;;2.25;2.25;;;;;15.05;63.65;101917.50;5064737;28;46016;-70
2022/10/11 00:22:48;;;;;;;;;0.75;0.75;;;;;15.58;63.74;102013.84;5058178;28;45311;-70
2022/10/11 00:25:13;;;;;;;;;1.00;1.00;;;;;15.66;63.82;102030.38;5076073;28;45704;-70
2022/10/11 00:27:38;;;;;;;;;1.25;1.25;;;;;15.73;63.23;102047.00;5075951;28;45329;-70
2022/10/11 00:30:05;;;;;;;;;3.00;1.33;;;;;15.24;63.36;101968.31;5075889;28;45397;-70
2022/10/11 00:32:32;;;;;;;;;4.00;1.00;;;;;15.70;63.42;102047.19;5075861;28;45423;-70
2022/10/11 00:35:03;;;;;;;;;1.75;1.75;;;;;15.17;62.99;101966.97;5076227;28;45414;-70
2022/10/11 00:37:29;;;;;;;;;0.50;0.50;;;;;15.66;63.29;102054.56;5075929;28;45509;-70
2022/10/11 00:39:54;;;;;;;;;2.00;0.00;;;;;15.40;63.43;102011.28;5075565;28;45611;-71
2022/10/11 00:42:19;;;;;;;;;2.67;1.67;;;;;15.45;63.23;102019.97;5058008;28;45513;-71
2022/10/11 00:44:47;;;;;;;;;1.00;1.00;;;;;15.41;62.27;102013.03;5075802;28;45465;-70
2022/10/11 00:47:19;;;;;;;;;1.25;1.25;;;;;15.59;62.52;102046.00;5075856;28;45373;-71
2022/10/11 00:49:48;;;;;;;;;1.00;1.00;;;;;15.60;62.56;102055.81;5075779;28;47159;-70
2022/10/11 00:52:21;;;;;;;;;2.75;1.75;;;;;15.64;62.47;102062.75;5075803;28;45370;-71
2022/10/11 00:54:48;;;;;;;;;1.00;1.00;;;;;15.58;62.39;102048.78;5075338;28;45443;-71
2022/10/11 00:57:21;;;;;;;;;0.33;0.33;;;;;15.58;62.21;102057.72;5075664;28;45472;-70
2022/10/11 00:59:51;;;;;;;;;1.75;1.75;;;;;14.66;61.86;101901.88;5069510;28;48452;-70
2022/10/11 01:02:18;;;;;;;;;1.00;1.00;;;;;15.55;61.86;102057.03;5075528;27;45342;-69
2022/10/11 01:04:43;;;;;;;;;4.00;1.00;;;;;15.51;61.76;102059.06;5075438;27;45302;-71
2022/10/11 01:07:10;;;;;;;;;0.00;0.00;;;;;15.35;61.73;102037.59;5075435;27;45277;-71
2022/10/11 01:09:35;;;;;;;;;2.00;0.67;;;;;15.52;61.47;102062.59;5074350;27;46310;-71
2022/10/11 01:12:04;;;;;;;;;2.00;1.00;;;;;15.51;61.57;102060.84;5075304;27;45425;-71
2022/10/11 01:14:37;;;;;;;;;1.00;1.00;;;;;15.52;61.42;102059.91;5074027;28;45376;-71
2022/10/11 01:17:17;;;;;;;;;2.25;1.25;;;;;15.45;61.18;102059.41;5075215;28;45484;-71
2022/10/11 01:19:47;;;;;;;;;2.25;1.00;;;;;15.42;61.34;102063.13;5074740;27;46014;-71
2022/10/11 01:22:21;;;;;;;;;1.00;1.00;;;;;15.40;61.13;102062.38;5074991;27;45592;-71
2022/10/11 01:24:56;;;;;;;;;2.75;1.75;;;;;15.38;60.88;102063.41;5073498;28;45313;-71
2022/10/11 01:27:24;;;;;;;;;2.75;1.00;;;;;15.39;61.30;102059.78;5075121;27;45542;-71
2022/10/11 01:30:22;;;;;;;;;1.00;1.00;;;;;15.42;60.73;102062.28;5073470;28;47685;-71
2022/10/11 01:33:26;;;;;;;;;2.00;1.00;;;;;15.44;60.48;102066.63;5075039;28;45800;-71
2022/10/11 01:36:05;;;;;;;;;1.00;1.00;;;;;15.42;60.77;102062.28;5012163;28;45436;-71
2022/10/11 01:38:45;;;;;;;;;2.00;2.00;;;;;15.40;60.38;102065.06;4995574;28;45693;-71
2022/10/11 01:41:26;;;;;;;;;1.75;1.75;;;;;15.34;60.63;102053.81;5011675;28;45505;-70
2022/10/11 01:43:56;;;;;;;;;2.67;1.00;;;;;15.39;60.21;102062.47;5011889;28;45525;-71
2022/10/11 01:46:23;;;;;;;;;3.67;1.00;;;;;15.36;60.37;102068.91;5012098;28;45342;-71
2022/10/11 01:48:55;;;;;;;;;1.00;0.33;;;;;15.32;60.52;102061.97;5012223;28;45356;-71
2022/10/11 01:51:26;;;;;;;;;2.00;2.00;;;;;15.31;60.45;102061.06;5011930;28;46222;-71
2022/10/11 01:54:18;;;;;;;;;1.00;1.00;;;;;15.30;60.28;102058.47;5011703;28;46034;-71
2022/10/11 01:57:11;;;;;;;;;3.75;2.00;;;;;15.31;60.06;102050.31;5012243;28;45401;-71
2022/10/11 01:59:54;;;;;;;;;1.00;1.00;;;;;15.29;59.59;102064.81;5011458;28;45654;-70
2022/10/11 02:02:44;;;;;;;;;0.33;0.33;;;;;15.28;59.95;102061.25;5011538;28;47545;-71
2022/10/11 02:05:25;;;;;;;;;1.00;1.00;;;;;15.30;60.09;102051.31;4995033;28;45465;-71
2022/10/11 02:08:09;;;;;;;;;1.00;1.00;;;;;15.34;59.92;102056.50;5011789;28;45380;-71
2022/10/11 02:10:43;;;;;;;;;1.00;1.00;;;;;15.36;59.58;102060.81;5018774;28;45479;-71
2022/10/11 02:13:16;;;;;;;;;0.67;0.67;;;;;15.39;59.67;102054.41;5069563;28;46184;-71
2022/10/11 02:15:45;;;;;;;;;0.33;0.00;;;;;15.44;59.45;102052.28;5074426;27;45345;-71
2022/10/11 02:18:25;;;;;;;;;2.00;1.00;;;;;14.91;59.07;101971.16;5074737;27;45346;-71
2022/10/11 02:20:52;;;;;;;;;3.00;0.67;;;;;15.34;59.34;102046.59;5076011;27;45489;-71
2022/10/11 02:23:26;;;;;;;;;1.33;0.33;;;;;15.39;59.48;102052.56;5077539;28;46226;-71
2022/10/11 02:25:54;;;;;;;;;0.67;0.00;;;;;15.36;59.02;102051.88;5077998;27;45479;-71
2022/10/11 02:28:27;;;;;;;;;0.00;0.00;;;;;15.37;58.82;102065.25;5078257;27;45372;-71
2022/10/11 02:30:55;;;;;;;;;2.00;1.00;;;;;15.34;59.00;102054.66;5077721;27;45430;-71
2022/10/11 02:33:30;;;;;;;;;1.00;1.00;;;;;15.31;59.17;102044.94;5077715;27;46632;-71
2022/10/11 02:36:06;;;;;;;;;1.33;0.00;;;;;15.39;58.92;102059.78;5077791;27;45491;-71
2022/10/11 02:38:39;;;;;;;;;2.00;0.33;;;;;15.37;58.69;102059.88;5071035;27;45406;-71
2022/10/11 02:41:16;;;;;;;;;1.25;1.25;;;;;15.31;58.82;102065.59;5057189;28;45372;-71
2022/10/11 02:43:49;;;;;;;;;3.00;1.00;;;;;15.33;58.89;102063.69;5060046;28;45414;-71
2022/10/11 02:46:15;;;;;;;;;3.00;1.00;;;;;15.35;58.83;102056.41;5077693;27;45428;-71
2022/10/11 02:48:41;;;;;;;;;0.67;0.67;;;;;15.24;58.44;102043.59;5077610;27;45300;-71
2022/10/11 02:51:11;;;;;;;;;1.75;0.50;;;;;15.25;58.54;102050.69;5077446;27;45321;-71
2022/10/11 02:53:37;;;;;;;;;0.00;0.00;;;;;15.28;58.27;102053.19;5077731;27;45423;-71
2022/10/11 02:56:02;;;;;;;;;1.00;0.00;;;;;15.20;58.53;102047.41;5077144;27;45530;-71
2022/10/11 02:58:28;;;;;;;;;4.00;1.00;;;;;15.24;58.54;102059.72;5077287;28;45406;-71
2022/10/11 03:00:53;;;;;;;;;2.00;1.00;;;;;15.25;58.62;102055.19;5059625;28;45385;-71
2022/10/11 03:03:18;;;;;;;;;1.00;1.00;;;;;15.21;58.35;102062.59;5076992;28;46453;-71
2022/10/11 03:05:44;;;;;;;;;2.00;1.00;;;;;15.22;58.41;102063.44;5076857;28;45445;-71
2022/10/11 03:08:13;;;;;;;;;1.00;0.25;;;;;15.08;58.26;102027.47;5075931;28;45358;-71
2022/10/11 03:10:39;;;;;;;;;1.67;1.33;;;;;15.22;58.58;102074.19;5063873;28;45615;-71
2022/10/11 03:13:05;;;;;;;;;0.67;0.67;;;;;15.22;58.31;102066.13;5054189;28;46222;-71
2022/10/11 03:15:30;;;;;;;;;0.00;0.00;;;;;15.13;58.47;102075.63;5038309;28;45386;-72
2022/10/11 03:17:56;;;;;;;;;0.00;0.00;;;;;15.11;58.46;102070.28;5056154;28;45403;-71
2022/10/11 03:20:22;;;;;;;;;0.00;0.00;;;;;14.17;58.52;101916.28;5068082;28;45338;-70
2022/10/11 03:22:48;;;;;;;;;0.67;0.00;;;;;15.09;58.53;102076.75;5078842;28;46350;-71
2022/10/11 03:25:13;;;;;;;;;0.33;0.00;;;;;14.63;58.49;102011.22;5077206;28;45414;-71
2022/10/11 03:27:38;;;;;;;;;2.00;0.00;;;;;15.03;58.53;102079.78;5076605;28;45849;-71
2022/10/11 03:30:05;;;;;;;;;1.00;0.00;;;;;15.00;58.34;102083.50;5077007;28;45358;-70
2022/10/11 03:32:30;;;;;;;;;3.75;1.00;;;;;14.95;57.98;102075.72;5075810;28;46264;-70
2022/10/11 03:34:56;;;;;;;;;0.00;0.00;;;;;14.93;58.49;102079.44;5076541;28;45546;-71
2022/10/11 03:37:21;;;;;;;;;1.67;0.67;;;;;14.86;58.46;102069.97;5076584;28;45399;-71
2022/10/11 03:39:47;;;;;;;;;4.00;1.00;;;;;14.93;58.22;102079.44;5076027;28;45352;-71
2022/10/11 03:42:13;;;;;;;;;1.00;0.00;;;;;14.86;58.20;102069.97;5067452;28;46875;-71
2022/10/11 03:44:40;;;;;;;;;2.00;1.00;;;;;14.87;58.01;102085.13;5068739;28;45454;-71
2022/10/11 03:47:05;;;;;;;;;0.00;0.00;;;;;14.80;57.54;102082.81;5076307;28;45255;-70
2022/10/11 03:49:31;;;;;;;;;5.25;1.00;;;;;14.27;57.89;102001.56;5076250;28;45421;-71
2022/10/11 03:51:56;;;;;;;;;1.00;0.00;;;;;14.76;57.90;102089.28;5076007;28;46607;-71
2022/10/11 03:54:22;;;;;;;;;0.67;0.00;;;;;14.75;58.39;102094.75;5058218;28;45408;-71
2022/10/11 03:56:47;;;;;;;;;0.00;0.00;;;;;14.51;58.39;102062.03;5076661;28;45480;-71
2022/10/11 03:59:13;;;;;;;;;0.25;0.25;;;;;14.70;58.26;102096.81;5076318;28;45405;-71
2022/10/11 04:01:38;;;;;;;;;2.33;1.00;;;;;14.69;58.66;102093.28;5076352;28;45397;-71
2022/10/11 04:04:04;;;;;;;;;1.33;0.33;;;;;14.63;58.71;102096.31;5076330;28;45369;-72
2022/10/11 04:06:30;;;;;;;;;0.00;0.00;;;;;14.61;58.72;102095.47;5076513;28;45397;-72
2022/10/11 04:08:55;;;;;;;;;2.67;0.67;;;;;14.47;58.66;102085.50;5076175;28;45417;-72
2022/10/11 04:11:21;;;;;;;;;0.00;0.00;;;;;14.46;58.74;102090.00;5057661;28;46133;-71
2022/10/11 04:13:47;;;;;;;;;0.00;0.00;;;;;14.54;58.65;102103.00;5055995;28;45386;-71
2022/10/11 04:16:12;;;;;;;;;0.00;0.00;;;;;14.06;58.88;102027.75;5056182;28;45315;-71
2022/10/11 04:18:38;;;;;;;;;0.00;0.00;;;;;14.10;58.93;102042.75;5021278;28;45550;-72
2022/10/11 04:21:03;;;;;;;;;3.25;0.75;;;;;14.39;58.83;102107.38;5053371;28;46355;-71
2022/10/11 04:23:32;;;;;;;;;1.00;0.00;;;;;14.39;58.80;102110.06;5076152;28;45364;-71
2022/10/11 04:25:58;;;;;;;;;3.00;2.00;;;;;14.40;59.06;102118.97;5076569;28;45328;-71
2022/10/11 04:28:23;;;;;;;;;0.00;0.00;;;;;14.40;59.24;102106.44;5076010;28;45361;-71
2022/10/11 04:30:50;;;;;;;;;1.25;1.00;;;;;14.37;59.22;102109.28;5076066;28;46153;-71
2022/10/11 04:33:15;;;;;;;;;1.25;1.00;;;;;14.29;59.16;102107.03;5057175;28;45434;-71
2022/10/11 04:35:41;;;;;;;;;0.33;0.00;;;;;14.26;59.37;102111.69;5075320;28;45379;-72
2022/10/11 04:38:06;;;;;;;;;3.00;1.00;;;;;14.23;59.17;102112.72;5075874;28;45386;-71
2022/10/11 04:40:32;;;;;;;;;1.50;0.00;;;;;13.90;59.59;102059.00;5075493;28;45521;-71
2022/10/11 04:42:57;;;;;;;;;1.00;1.00;;;;;14.22;59.31;102110.97;5074644;28;45401;-71
2022/10/11 04:45:23;;;;;;;;;3.00;0.75;;;;;14.23;59.72;102111.84;5075307;28;45412;-71
2022/10/11 04:47:48;;;;;;;;;3.25;0.50;;;;;14.24;59.57;102110.91;5075453;28;45365;-71
2022/10/11 04:50:14;;;;;;;;;1.25;0.00;;;;;14.22;59.37;102102.06;5075799;28;46264;-71
2022/10/11 04:52:39;;;;;;;;;1.00;1.00;;;;;14.20;59.29;102109.31;5075476;28;45396;-71
2022/10/11 04:55:05;;;;;;;;;1.00;1.00;;;;;14.22;59.75;102110.09;5075338;28;45360;-71
2022/10/11 04:57:30;;;;;;;;;0.00;0.00;;;;;14.21;59.86;102108.38;5075410;28;45318;-71
2022/10/11 04:59:55;;;;;;;;;1.00;1.00;;;;;14.16;59.19;102094.31;5075238;28;45449;-71
2022/10/11 05:02:21;;;;;;;;;0.25;0.25;;;;;14.24;59.46;102111.75;5075383;28;45421;-71
2022/10/11 05:04:46;;;;;;;;;2.00;0.00;;;;;14.20;59.17;102112.00;5075494;28;45363;-71
2022/10/11 05:07:12;;;;;;;;;2.50;0.75;;;;;14.10;59.31;102098.19;5075212;28;45361;-71
2022/10/11 05:09:37;;;;;;;;;1.00;0.00;;;;;14.14;59.25;102113.19;5071670;28;46315;-71
2022/10/11 05:12:03;;;;;;;;;3.00;0.25;;;;;14.07;58.82;102109.97;5055151;28;45333;-71
2022/10/11 05:14:28;;;;;;;;;2.00;0.00;;;;;13.71;59.02;102054.63;5055009;28;45375;-71
2022/10/11 05:16:54;;;;;;;;;0.00;0.00;;;;;14.02;58.66;102109.31;5054495;28;45510;-71
2022/10/11 05:19:19;;;;;;;;;1.00;0.00;;;;;14.01;58.85;102110.28;5055686;28;47337;-71
2022/10/11 05:21:44;;;;;;;;;0.00;0.00;;;;;13.51;58.52;102044.03;5074944;28;45448;-71
2022/10/11 05:24:10;;;;;;;;;3.00;1.00;;;;;13.48;58.95;102020.94;5075453;28;45332;-71
2022/10/11 05:26:35;;;;;;;;;1.50;1.00;;;;;13.08;58.85;101954.13;5057540;28;45367;-71
2022/10/11 05:29:01;;;;;;;;;1.00;1.00;;;;;13.98;58.45;102105.06;5054145;28;46341;-71
2022/10/11 05:31:26;;;;;;;;;1.00;1.00;;;;;13.98;58.58;102107.75;5056306;28;45415;-71
2022/10/11 05:33:52;;;;;;;;;0.00;0.00;;;;;13.98;58.41;102109.56;5074994;28;45456;-71
2022/10/11 05:36:17;;;;;;;;;1.00;1.00;;;;;13.97;58.41;102106.03;5062681;28;45511;-71
2022/10/11 05:38:43;;;;;;;;;0.50;0.50;;;;;13.52;58.15;102038.59;5053802;28;46377;-71
2022/10/11 05:41:11;;;;;;;;;0.00;0.00;;;;;13.91;58.02;102104.50;5053998;28;45350;-72
2022/10/11 05:43:37;;;;;;;;;1.00;1.00;;;;;13.89;57.93;102101.06;5054784;28;45327;-73
2022/10/11 05:46:02;;;;;;;;;0.25;0.25;;;;;13.83;57.96;102101.38;5036325;28;45513;-72
2022/10/11 05:48:27;;;;;;;;;1.00;0.00;;;;;13.92;58.21;102105.41;5036242;28;47701;-72
2022/10/11 05:51:01;;;;;;;;;2.00;1.00;;;;;13.92;57.96;102108.09;5054748;28;48327;-72
2022/10/11 05:53:27;;;;;;;;;1.25;1.25;;;;;13.88;57.75;102110.06;5054898;28;45398;-72
2022/10/11 05:55:52;;;;;;;;;3.00;1.00;;;;;13.89;57.92;102114.47;5054728;28;45360;-73
2022/10/11 05:58:18;;;;;;;;;1.00;1.00;;;;;13.90;57.74;102118.00;5057841;28;45498;-72
2022/10/11 06:00:43;;;;;;;;;2.00;0.00;;;;;13.90;57.77;102112.66;5074724;27;45353;-72
2022/10/11 06:03:11;;;;;;;;;1.75;1.00;;;;;13.89;58.02;102109.13;5074559;27;45543;-73
2022/10/11 06:05:37;;;;;;;;;1.00;0.75;;;;;13.94;57.79;102103.50;5074638;27;45488;-72
2022/10/11 06:08:04;;;;;;;;;3.75;0.75;;;;;13.98;57.73;102109.56;5075176;27;46249;-73
2022/10/11 06:10:30;;;;;;;;;1.00;1.00;;;;;13.99;57.80;102108.63;5074836;27;45458;-73
2022/10/11 06:12:55;;;;;;;;;0.00;0.00;;;;;13.95;57.71;102102.56;5073278;28;45314;-73
2022/10/11 06:15:20;;;;;;;;;2.25;1.00;;;;;13.99;57.75;102114.84;5074886;28;45400;-72
2022/10/11 06:17:46;;;;;;;;;0.00;0.00;;;;;14.01;57.69;102118.34;5074811;27;45586;-72
2022/10/11 06:20:12;;;;;;;;;2.25;1.25;;;;;13.74;57.49;102078.59;5074374;27;45395;-72
2022/10/11 06:22:37;;;;;;;;;1.50;1.00;;;;;14.01;57.56;102131.75;5073379;28;45427;-72
2022/10/11 06:25:03;;;;;;;;;1.00;1.00;;;;;13.96;57.69;102125.75;5069763;27;45645;-73
2022/10/11 06:27:29;;;;;;;;;3.50;3.00;;;;;13.94;57.83;102135.69;5074562;27;45499;-73
2022/10/11 06:29:55;;;;;;;;;0.75;0.75;;;;;14.02;57.82;102132.63;5075112;28;45361;-73
2022/10/11 06:32:20;;;;;;;;;2.00;1.00;;;;;14.03;57.45;102145.94;5078745;28;45376;-72
2022/10/11 06:34:46;;;;;;;;;2.00;0.50;;;;;14.03;57.64;102143.25;5079139;28;45420;-72
2022/10/11 06:37:11;;;;;;;;;1.25;1.25;;;;;14.03;57.81;102145.09;5070479;27;46108;-73
2022/10/11 06:39:37;;;;;;;;;1.00;1.00;;;;;13.75;57.58;102092.84;5066538;28;45305;-73
2022/10/11 06:42:02;;;;;;;;;1.00;1.00;;;;;13.97;57.54;102140.91;5074270;27;45315;-73
2022/10/11 06:44:28;;;;;;;;;2.75;2.00;;;;;13.96;58.00;102150.75;5075010;28;45388;-73
2022/10/11 06:46:53;;;;;;;;;2.75;2.00;;;;;13.94;57.90;102151.78;5073325;28;48212;-73
2022/10/11 06:49:18;;;;;;;;;0.75;0.00;;;;;13.92;57.90;102159.06;5074693;28;45301;-72
2022/10/11 06:51:44;;;;;;;;;1.25;1.25;;;;;13.86;58.35;102157.56;5074233;28;45381;-73
2022/10/11 06:54:09;;;;;;;;;0.00;0.00;;;;;13.80;58.33;102150.66;5075498;28;45282;-73
2022/10/11 06:56:35;;;;;;;;;1.25;1.25;;;;;13.88;58.47;102160.16;5075267;28;45377;-72
2022/10/11 06:59:00;;;;;;;;;1.00;1.00;;;;;13.87;58.05;102155.72;5075519;28;45270;-72
2022/10/11 07:01:26;;;;;;;;;3.00;1.25;;;;;13.80;58.08;102156.03;5075556;28;45348;-71
2022/10/11 07:03:53;;;;;;;;;2.25;2.25;;;;;13.87;58.33;102161.09;5075491;28;45655;-72
2022/10/11 07:06:21;;;;;;;;;1.00;1.00;;;;;13.63;57.78;102127.41;5076232;28;45460;-71
2022/10/11 07:08:46;;;;;;;;;2.50;1.00;;;;;13.88;57.75;102160.16;5078639;28;45330;-72
2022/10/11 07:11:14;;;;;;;;;2.50;1.50;;;;;13.88;57.69;102160.16;5078112;27;45352;-71
2022/10/11 07:13:40;;;;;;;;;1.75;1.25;;;;;13.87;57.89;102163.78;5078585;27;45418;-71
2022/10/11 07:16:09;;;;;;;;;3.50;1.00;;;;;13.86;57.73;102162.03;5078189;28;45721;-72
2022/10/11 07:18:35;;;;;;;;;1.00;1.00;;;;;13.93;57.32;102174.22;5078160;28;45377;-72
2022/10/11 07:21:06;;;;;;;;;1.33;1.00;;;;;13.95;57.24;102172.31;5078271;28;45407;-72
2022/10/11 07:23:32;;;;;;;;;0.00;0.00;;;;;13.94;57.36;102157.16;5078159;28;45404;-72
2022/10/11 07:25:57;;;;;;;;;3.00;0.75;;;;;14.05;57.10;102181.63;5077944;28;45452;-71
2022/10/11 07:28:23;;;;;;;;;3.00;2.00;;;;;14.11;57.23;102173.25;5078171;28;45386;-73
2022/10/11 07:30:49;;;;;;;;;1.00;0.00;;;;;14.16;57.50;102174.81;5076637;28;45371;-72
2022/10/11 07:33:14;;;;;;;;;4.25;3.00;;;;;14.21;57.17;102183.50;5069105;27;45516;-71
2022/10/11 07:35:40;;;;;;;;;1.00;1.00;;;;;14.30;56.87;102188.41;5069996;27;45716;-71
2022/10/11 07:38:06;;;;;;;;;1.50;1.50;;;;;14.34;56.41;102198.03;5074422;27;46426;-72
2022/10/11 07:40:33;;;;;;;;;2.50;2.00;;;;;14.40;57.08;102200.41;5095483;27;45458;-72
2022/10/11 07:42:59;;;;;;;;;1.00;1.00;;;;;14.45;56.61;102184.94;5097697;27;45359;-72
2022/10/11 07:45:27;;;;;;;;;5.50;1.00;;;;;14.46;56.30;102199.22;5098450;27;46425;-71
2022/10/11 07:47:57;;;;;;;;;1.00;1.00;;;;;14.45;56.26;102205.53;5098239;27;45392;-72
2022/10/11 07:50:23;;;;;;;;;0.25;0.25;;;;;14.45;56.25;102206.41;5097856;27;45420;-72
2022/10/11 07:52:48;;;;;;;;;1.00;1.00;;;;;14.46;56.41;102194.69;5098444;27;45405;-72
2022/10/11 07:55:14;;;;;;;;;1.25;1.00;;;;;14.06;56.15;102142.25;5097806;27;45299;-73
2022/10/11 07:57:39;;;;;;;;;1.75;1.75;;;;;14.46;56.45;102208.13;5096644;27;45376;-71
2022/10/11 08:00:05;;;;;;;;;1.75;1.75;;;;;14.46;56.46;102215.31;5097836;27;45585;-72
2022/10/11 08:02:31;;;;;;;;;1.25;1.00;;;;;14.44;56.49;102218.09;5098254;27;45269;-72
2022/10/11 08:04:56;;;;;;;;;1.00;1.00;;;;;14.46;56.72;102218.84;5096940;27;46843;-72
2022/10/11 08:07:22;;;;;;;;;2.00;1.00;;;;;14.49;56.34;102225.03;5098341;27;45388;-71
2022/10/11 08:09:47;;;;;;;;;2.00;0.75;;;;;14.51;56.62;102220.44;5093381;27;45480;-71
2022/10/11 08:12:12;;;;;;;;;3.00;2.00;;;;;14.51;56.23;102221.31;5078153;28;45418;-71
2022/10/11 08:14:40;;;;;;;;;4.25;1.00;;;;;14.63;55.97;102219.84;5077396;28;46102;-71
2022/10/11 08:17:05;;;;;;;;;2.50;1.25;;;;;14.65;56.23;102214.38;5077516;28;45575;-71
2022/10/11 08:19:31;;;;;;;;;4.00;2.00;;;;;14.75;55.82;102219.19;5077429;27;45436;-72
2022/10/11 08:21:56;;;;;;;;;3.50;1.25;;;;;14.63;55.63;102188.47;5077307;28;45290;-72
2022/10/11 08:24:23;;;;;;;;;2.00;2.00;;;;;15.05;55.43;102218.47;5076384;28;45400;-72
2022/10/11 08:26:48;;;;;;;;;3.75;2.00;;;;;15.39;54.73;102232.72;5076892;27;45344;-72
2022/10/11 08:29:13;;;;;;;;;1.25;1.25;;;;;15.68;53.47;102187.13;5076778;28;45368;-71
2022/10/11 08:31:39;;;;;;;;;1.75;0.00;;;;;16.65;51.35;102200.25;5077316;28;45743;-71
2022/10/11 08:34:04;;;;;;;;;2.50;2.00;;;;;16.90;50.71;102219.44;5076809;28;47339;-71
2022/10/11 08:36:30;;;;;;;;;1.00;1.00;;;;;17.54;49.50;102230.59;5077093;28;45286;-71
2022/10/11 08:38:55;;;;;;;;;4.75;3.00;;;;;19.94;45.00;102181.41;5075171;28;45558;-71
2022/10/11 08:41:36;;;;;;;;;4.50;3.00;;;;;22.01;40.89;102228.13;5109731;27;45469;-72
2022/10/11 08:44:31;;;;;;;;;1.00;1.00;;;;;22.05;40.50;102222.41;5077234;28;46395;-72
2022/10/11 08:47:18;;;;;;;;;1.00;1.00;;;;;23.50;37.55;102107.09;5076609;28;45308;-72
2022/10/11 08:49:43;;;;;;;;;1.00;1.00;;;;;26.06;33.81;102227.88;5074885;28;45414;-71
2022/10/11 08:52:33;;;;;;;;;5.33;1.00;;;;;28.08;31.74;102227.47;5077094;28;45326;-72
2022/10/11 08:55:11;;;;;;;;;1.00;1.00;;;;;28.89;29.45;102221.19;5077134;28;46477;-72
2022/10/11 08:57:38;;;;;;;;;1.00;1.00;;;;;28.62;29.20;102231.53;5076668;28;45420;-73
2022/10/11 09:00:13;;;;;;;;;3.33;2.00;;;;;28.29;30.39;102237.06;5092231;27;45309;-70
2022/10/11 09:02:39;;;;;;;;;2.00;2.00;;;;;28.08;29.83;102232.13;5076450;28;45441;-73
2022/10/11 09:05:06;;;;;;;;;3.33;1.00;;;;;28.39;30.02;102239.66;5076415;28;45696;-73
2022/10/11 09:07:49;;;;;;;;;2.00;2.00;;;;;28.91;29.12;102230.09;5076556;28;45388;-73
2022/10/11 09:10:29;;;;;;;;;2.00;1.00;;;;;29.08;29.19;102226.25;5075653;27;45239;-73
2022/10/11 09:13:30;;;;;;;;;1.33;1.33;;;;;28.70;29.09;102226.91;5073965;28;45444;-73
2022/10/11 09:16:12;;;;;;;;;1.00;1.00;;;;;27.67;30.24;102231.00;5075600;27;45500;-73
2022/10/11 09:18:50;;;;;;;;;2.50;2.00;;;;;27.27;30.78;102227.09;5074867;28;46049;-73
2022/10/11 09:21:30;;;;;;;;;3.00;3.00;;;;;26.58;31.82;102209.81;5070389;27;45444;-71
2022/10/11 09:24:04;;;;;;;;;2.00;2.00;;;;;27.18;31.30;102219.88;5091909;27;45548;-72
2022/10/11 09:26:49;;;;;;;;;2.00;2.00;;;;;27.97;30.20;102227.78;5063019;27;45937;-71
2022/10/11 09:29:24;;;;;;;;;1.33;1.33;;;;;28.67;29.10;102220.94;5084894;27;45381;-72
2022/10/11 09:31:53;;;;;;;;;1.00;1.00;;;;;28.96;28.32;102213.97;5091268;27;45411;-72
2022/10/11 09:34:23;;;;;;;;;2.00;1.00;;;;;29.23;28.12;102201.63;5078953;27;45512;-72
2022/10/11 09:36:53;;;;;;;;;0.67;0.67;;;;;29.72;28.41;102224.38;5089076;27;46401;-72
2022/10/11 09:39:26;;;;;;;;;1.75;1.75;;;;;30.03;28.00;102219.72;5086814;27;45367;-72
2022/10/11 09:41:57;;;;;;;;;3.00;2.25;;;;;30.17;27.02;102220.78;5079843;27;45380;-73
2022/10/11 09:44:36;;;;;;;;;3.33;2.00;;;;;30.40;26.78;102224.56;5109314;27;45364;-72
2022/10/11 09:47:02;;;;;;;;;4.25;3.75;;;;;30.49;27.25;102217.91;5085901;27;47537;-72
2022/10/11 09:49:34;;;;;;;;;2.00;2.00;;;;;30.47;26.82;102220.88;5086337;27;45354;-72
2022/10/11 09:52:02;;;;;;;;;2.50;2.00;;;;;30.19;27.65;102223.34;5095722;27;45318;-72
2022/10/11 09:54:49;;;;;;;;;3.50;3.00;;;;;29.68;28.08;102213.75;5065436;27;45349;-72
2022/10/11 09:57:19;;;;;;;;;1.75;1.75;;;;;29.11;29.06;102200.31;5084986;27;45763;-72
2022/10/11 10:00:00;;;;;;;;;5.25;2.25;;;;;28.47;29.95;102182.84;5074993;28;45429;-72
2022/10/11 10:02:27;;;;;;;;;1.75;1.75;;;;;27.96;30.52;102206.88;5042283;28;45361;-72
2022/10/11 10:04:54;;;;;;;;;1.25;1.25;;;;;27.46;31.12;102214.19;5057293;28;45534;-72
2022/10/11 10:07:20;;;;;;;;;2.00;2.00;;;;;26.98;32.62;102205.59;5071594;27;46917;-73
2022/10/11 10:09:46;;;;;;;;;2.00;2.00;;;;;26.62;33.02;102200.25;5045999;28;45459;-72
2022/10/11 10:12:12;;;;;;;;;2.00;2.00;;;;;26.36;33.32;102195.66;5073190;28;45261;-72
2022/10/11 10:14:40;;;;;;;;;4.25;4.00;;;;;26.14;33.93;102211.56;5074921;28;45390;-73
2022/10/11 10:17:14;;;;;;;;;1.00;1.00;;;;;25.96;34.04;102214.25;5073353;28;46140;-73
2022/10/11 10:19:47;;;;;;;;;2.75;1.75;;;;;25.60;34.68;102200.59;5071179;28;45517;-72
2022/10/11 10:22:20;;;;;;;;;3.75;2.50;;;;;25.41;35.27;102204.31;5053113;28;45427;-72
2022/10/11 10:24:48;;;;;;;;;2.67;1.67;;;;;25.21;34.86;102199.97;5053590;28;45533;-72
2022/10/11 10:27:13;;;;;;;;;2.00;1.00;;;;;24.81;35.55;102193.84;5053334;28;47000;-72
2022/10/11 10:29:39;;;;;;;;;4.00;1.00;;;;;24.47;36.50;102200.69;5053510;28;45405;-72
2022/10/11 10:32:41;;;;;;;;;2.00;2.00;;;;;24.02;37.02;102199.47;5053613;28;45417;-73
2022/10/11 10:35:33;;;;;;;;;1.00;1.00;;;;;23.60;36.81;102198.84;5040369;28;45318;-72
2022/10/11 10:38:22;;;;;;;;;2.00;2.00;;;;;22.97;37.65;102170.00;5045204;28;47302;-72
2022/10/11 10:40:50;;;;;;;;;4.25;1.00;;;;;22.85;38.40;102199.19;5054142;28;45229;-72
2022/10/11 10:43:20;;;;;;;;;0.67;0.67;;;;;22.68;38.70;102187.09;5058055;28;45538;-72
2022/10/11 10:45:48;;;;;;;;;2.00;2.00;;;;;22.43;38.45;102201.97;5057359;28;45335;-73
2022/10/11 10:48:36;;;;;;;;;2.00;2.00;;;;;22.18;39.09;102193.19;5057429;28;45330;-73
2022/10/11 10:51:37;;;;;;;;;1.00;1.00;;;;;21.97;38.68;102199.47;5057929;28;45463;-73
2022/10/11 10:54:20;;;;;;;;;1.00;1.00;;;;;21.80;38.00;102200.06;5059186;28;45343;-72
2022/10/11 10:56:51;;;;;;;;;1.00;1.00;;;;;21.57;38.46;102196.53;5058772;28;45409;-72
2022/10/11 10:59:47;;;;;;;;;0.00;0.00;;;;;21.18;39.01;102158.97;5069974;27;46486;-72
2022/10/11 11:02:39;;;;;;;;;2.00;0.00;;;;;21.27;38.56;102195.34;5078486;28;45407;-73
2022/10/11 11:05:32;;;;;;;;;4.50;2.00;;;;;21.09;38.84;102190.44;5078981;28;45297;-72
2022/10/11 11:08:06;;;;;;;;;1.00;1.00;;;;;20.96;38.45;102186.97;5055885;28;45471;-72
2022/10/11 11:10:37;;;;;;;;;1.00;1.00;;;;;20.88;39.08;102190.34;5055812;28;47092;-72
2022/10/11 11:13:03;;;;;;;;;0.00;0.00;;;;;20.81;39.16;102187.25;5056290;28;45393;-73
2022/10/11 11:15:40;;;;;;;;;0.00;0.00;;;;;20.76;39.72;102196.75;5056199;28;45354;-73
2022/10/11 11:18:24;;;;;;;;;2.25;1.50;;;;;20.81;39.19;102184.53;5056496;28;45306;-72
2022/10/11 11:21:04;;;;;;;;;0.67;0.67;;;;;20.86;39.36;102183.31;5054099;28;45610;-73
2022/10/11 11:23:44;;;;;;;;;0.00;0.00;;;;;20.78;40.32;102176.63;5055586;28;45348;-72
2022/10/11 11:26:15;;;;;;;;;0.67;0.67;;;;;20.92;39.51;102180.09;5055805;28;45429;-72
2022/10/11 11:28:58;;;;;;;;;2.33;1.00;;;;;20.94;39.25;102178.97;5055866;28;45556;-72
2022/10/11 11:31:26;;;;;;;;;3.50;0.75;;;;;21.00;39.08;102180.31;5055754;28;45503;-72
2022/10/11 11:33:54;;;;;;;;;2.67;1.00;;;;;21.15;39.50;102176.38;5055255;28;45699;-72
2022/10/11 11:36:31;;;;;;;;;1.50;1.50;;;;;21.11;38.45;102164.06;5055540;28;45571;-73